West Valley, New York
Current Conditions -  °F | °C
As of 8:35 AM on Friday 24 Oct 2014 (Local Time) from KOLE Reporting Station
Overcast Overcast  
Wind Chill: 33°   Ceiling: 400
Heat Index: 37°   Visibility: 7mi
Dew Point: 37°   Wind: 6mph
Humidity: 100%   Direction: 290°WNW
Pressure: 30.02"   Gusts: NA
Location:  42.4°N, 78.61°W
Report Text: KOLE 241235Z AUTO 29005KT 7SM OVC004 03/03 A3002 RMK AO2
Loading
Personal Weather Stations






























Interactive Weather Map
Tropical Storm Tracking
New forecast layout! Learn more

10-Day Weather Forecast

Advertisements
Track Severe Weather on mobile